createdAt,value
2023-04-01T00:02:41.366Z,61.97
2023-04-01T00:06:41.188Z,61.86
2023-04-01T00:10:41.237Z,62.26
2023-04-01T00:14:41.132Z,61.98
2023-04-01T00:18:41.094Z,61.66
2023-04-01T00:22:41.241Z,61.21
2023-04-01T00:26:41.364Z,61.62
2023-04-01T00:30:41.746Z,61.79
2023-04-01T00:34:41.326Z,61.61
2023-04-01T00:38:41.298Z,62.18
2023-04-01T00:42:41.245Z,62.41
2023-04-01T00:46:41.240Z,62.27
2023-04-01T00:50:41.182Z,62.62
2023-04-01T00:54:41.758Z,62.57
2023-04-01T00:58:41.114Z,61.71
2023-04-01T01:02:41.418Z,61.49
2023-04-01T01:06:41.070Z,61.09
2023-04-01T01:10:41.284Z,61.17
2023-04-01T01:14:40.968Z,61.06
2023-04-01T01:18:40.959Z,61.48
2023-04-01T01:22:41.271Z,61.16
2023-04-01T01:26:41.283Z,61.05
2023-04-01T01:30:41.370Z,60.11
2023-04-01T01:34:40.793Z,59.54
2023-04-01T01:38:40.788Z,59.74
2023-04-01T01:42:40.716Z,59.40
2023-04-01T01:46:40.816Z,58.87
2023-04-01T01:50:40.774Z,58.67
2023-04-01T01:54:40.780Z,58.19
2023-04-01T01:58:40.702Z,57.89
2023-04-01T02:02:40.821Z,58.38
2023-04-01T02:06:41.288Z,58.71
2023-04-01T02:10:40.931Z,58.30
2023-04-01T02:14:41.774Z,58.38
2023-04-01T02:18:41.065Z,57.79
2023-04-01T02:22:41.281Z,57.97
2023-04-01T02:26:41.117Z,58.30
2023-04-01T02:30:41.295Z,58.14
2023-04-01T02:34:41.289Z,59.49
2023-04-01T02:38:41.893Z,59.78
2023-04-01T02:42:41.523Z,59.53
2023-04-01T02:46:41.884Z,58.94
2023-04-01T02:50:41.768Z,60.26
2023-04-01T02:54:41.947Z,60.81
2023-04-01T02:58:42.289Z,60.96
2023-04-01T03:02:42.259Z,61.02
2023-04-01T03:06:42.779Z,61.19
2023-04-01T03:10:42.563Z,61.26
2023-04-01T03:14:42.738Z,61.32
2023-04-01T03:18:43.307Z,61.65
2023-04-01T03:22:43.235Z,61.46
2023-04-01T03:26:43.395Z,61.52
2023-04-01T03:30:43.594Z,61.78
2023-04-01T03:34:43.530Z,61.73
2023-04-01T03:38:43.794Z,61.68
2023-04-01T03:42:43.603Z,61.74
2023-04-01T03:46:43.971Z,62.26
2023-04-01T03:50:43.403Z,61.99
2023-04-01T03:54:43.955Z,62.03
2023-04-01T03:58:43.390Z,62.32
2023-04-01T04:02:43.495Z,62.44
2023-04-01T04:06:43.425Z,62.83
2023-04-01T04:10:43.231Z,62.69
2023-04-01T04:14:43.813Z,62.48
2023-04-01T04:18:43.626Z,62.49
2023-04-01T04:22:44.304Z,62.24
2023-04-01T04:26:44.060Z,62.83
2023-04-01T04:30:44.255Z,63.40
2023-04-01T04:34:44.810Z,63.99
2023-04-01T04:38:44.454Z,64.31
2023-04-01T04:42:44.808Z,64.19
2023-04-01T04:46:44.474Z,64.78
2023-04-01T04:50:44.322Z,64.50
2023-04-01T04:54:44.293Z,63.90
2023-04-01T04:58:44.271Z,63.44
2023-04-01T05:02:44.389Z,63.39
2023-04-01T05:06:44.178Z,63.73
2023-04-01T05:10:44.391Z,63.13
2023-04-01T05:14:44.273Z,62.96
2023-04-01T05:18:44.512Z,63.69
2023-04-01T05:22:44.841Z,63.77
2023-04-01T05:26:44.621Z,63.60
2023-04-01T05:30:44.845Z,63.23
2023-04-01T05:34:44.855Z,63.37
2023-04-01T05:38:44.681Z,63.39
2023-04-01T05:42:44.985Z,63.16
2023-04-01T05:46:44.708Z,63.39
2023-04-01T05:50:44.839Z,63.47
2023-04-01T05:54:44.958Z,63.62
2023-04-01T05:58:44.941Z,63.56
2023-04-01T06:02:44.902Z,63.71
2023-04-01T06:06:44.499Z,63.22
2023-04-01T06:10:44.506Z,62.82
2023-04-01T06:14:44.836Z,62.28
2023-04-01T06:18:44.423Z,61.69
2023-04-01T06:22:44.512Z,62.07
2023-04-01T06:26:44.284Z,61.95
2023-04-01T06:30:44.394Z,62.70
2023-04-01T06:34:44.362Z,63.09
2023-04-01T06:38:44.192Z,62.92
2023-04-01T06:42:44.120Z,62.76
2023-04-01T06:46:44.346Z,62.40
2023-04-01T06:50:44.451Z,62.62
2023-04-01T06:54:44.203Z,62.96
2023-04-01T06:58:44.869Z,63.25
2023-04-01T07:02:44.546Z,62.84
2023-04-01T07:06:44.947Z,61.75
2023-04-01T07:10:44.892Z,60.63
2023-04-01T07:14:45.126Z,61.09
2023-04-01T07:18:44.983Z,61.91
2023-04-01T07:22:45.003Z,61.78
2023-04-01T07:26:45.661Z,61.11
2023-04-01T07:30:45.043Z,60.88
2023-04-01T07:34:45.430Z,61.03
2023-04-01T07:38:45.433Z,61.24
2023-04-01T07:42:45.196Z,61.46
2023-04-01T07:46:45.501Z,61.56
2023-04-01T07:50:47.112Z,60.88
2023-04-01T07:54:44.992Z,60.73
2023-04-01T07:58:45.337Z,60.51
2023-04-01T08:02:44.989Z,60.54
2023-04-01T08:06:44.886Z,60.17
2023-04-01T08:10:44.896Z,60.32
2023-04-01T08:14:44.805Z,59.68
2023-04-01T08:18:44.744Z,59.02
2023-04-01T08:22:44.875Z,59.42
2023-04-01T08:26:44.884Z,59.19
2023-04-01T08:30:44.846Z,58.92
2023-04-01T08:34:45.486Z,58.00
2023-04-01T08:38:44.641Z,56.66
2023-04-01T08:42:44.886Z,56.42
2023-04-01T08:46:44.963Z,55.56
2023-04-01T08:50:45.018Z,53.86
2023-04-01T08:54:44.445Z,52.80
2023-04-01T08:58:44.415Z,52.93
2023-04-01T09:02:44.496Z,53.35
2023-04-01T09:06:44.366Z,52.41
2023-04-01T09:10:44.378Z,53.27
2023-04-01T09:14:44.269Z,53.49
2023-04-01T09:18:44.229Z,53.13
2023-04-01T09:22:44.408Z,51.93
2023-04-01T09:26:44.380Z,50.41
2023-04-01T09:30:44.387Z,50.01
2023-04-01T09:34:44.396Z,48.59
2023-04-01T09:38:44.397Z,47.84
2023-04-01T09:42:44.970Z,46.90
2023-04-01T09:46:45.060Z,46.50
2023-04-01T09:50:44.949Z,46.46
2023-04-01T09:54:44.892Z,46.41
2023-04-01T09:58:45.022Z,45.03
2023-04-01T10:02:45.514Z,45.52
2023-04-01T10:06:45.451Z,44.29
2023-04-01T10:10:44.918Z,43.06
2023-04-01T10:14:44.891Z,43.20
2023-04-01T10:18:44.808Z,42.78
2023-04-01T10:22:44.970Z,42.45
2023-04-01T10:26:44.955Z,41.92
2023-04-01T10:30:44.674Z,43.03
2023-04-01T10:34:44.672Z,41.81
2023-04-01T10:38:44.620Z,41.54
2023-04-01T10:42:44.914Z,41.23
2023-04-01T10:46:44.939Z,40.78
2023-04-01T10:50:44.951Z,40.51
2023-04-01T10:54:44.782Z,40.31
2023-04-01T10:58:44.824Z,39.80
2023-04-01T11:02:44.991Z,39.72
2023-04-01T11:06:45.545Z,39.28
2023-04-01T11:10:45.112Z,38.34
2023-04-01T11:14:45.014Z,38.29
2023-04-01T11:18:44.938Z,37.70
2023-04-01T11:22:44.975Z,37.57
2023-04-01T11:26:44.948Z,36.45
2023-04-01T11:30:44.900Z,36.99
2023-04-01T11:34:44.807Z,37.32
2023-04-01T11:38:44.743Z,37.31
2023-04-01T11:42:44.974Z,36.82
2023-04-01T11:46:44.754Z,35.72
2023-04-01T11:50:44.751Z,36.27
2023-04-01T11:54:45.522Z,35.34
2023-04-01T11:58:44.584Z,36.10
2023-04-01T12:02:45.102Z,35.80
2023-04-01T12:06:45.034Z,34.85
2023-04-01T12:10:44.506Z,33.99
2023-04-01T12:14:44.457Z,34.74
2023-04-01T12:18:44.447Z,35.39
2023-04-01T12:22:44.525Z,34.55
2023-04-01T12:26:44.956Z,35.50
2023-04-01T12:30:44.406Z,33.26
2023-04-01T12:34:44.445Z,33.55
2023-04-01T12:38:44.345Z,33.99
2023-04-01T12:42:44.448Z,33.85
2023-04-01T12:46:44.382Z,32.20
2023-04-01T12:50:44.337Z,31.96
2023-04-01T12:54:44.231Z,32.80
2023-04-01T12:58:44.454Z,33.62
2023-04-01T13:02:54.524Z,33.50
2023-04-01T13:06:44.114Z,32.98
2023-04-01T13:10:44.071Z,33.32
2023-04-01T13:14:44.483Z,35.14
2023-04-01T13:18:43.999Z,35.26
2023-04-01T13:22:44.077Z,34.72
2023-04-01T13:26:43.907Z,35.51
2023-04-01T13:30:43.970Z,36.52
2023-04-01T13:34:44.545Z,35.33
2023-04-01T13:38:44.511Z,33.24
2023-04-01T13:42:46.361Z,33.66
2023-04-01T13:46:44.486Z,35.43
2023-04-01T13:50:44.571Z,35.88
2023-04-01T13:54:45.232Z,35.93
2023-04-01T13:58:44.785Z,36.72
2023-04-01T14:02:45.155Z,36.09
2023-04-01T14:06:45.158Z,36.21
2023-04-01T14:10:45.254Z,35.88
2023-04-01T14:14:45.576Z,36.00
2023-04-01T14:18:45.991Z,36.79
2023-04-01T14:22:45.735Z,36.52
2023-04-01T14:26:45.887Z,35.93
2023-04-01T14:30:46.057Z,36.63
2023-04-01T14:34:46.110Z,36.72
2023-04-01T14:38:45.987Z,37.22
2023-04-01T14:42:46.058Z,36.75
2023-04-01T14:46:46.507Z,36.90
2023-04-01T14:50:45.848Z,36.83
2023-04-01T14:54:46.030Z,36.89
2023-04-01T14:58:45.997Z,37.00
2023-04-01T15:02:45.850Z,37.77
2023-04-01T15:06:46.030Z,37.21
2023-04-01T15:10:45.680Z,37.23
2023-04-01T15:14:46.017Z,37.42
2023-04-01T15:18:45.628Z,37.18
2023-04-01T15:22:45.699Z,37.25
2023-04-01T15:26:46.092Z,37.62
2023-04-01T15:32:59.418Z,37.60
2023-04-01T15:36:59.242Z,37.74
2023-04-01T15:40:59.419Z,38.26
2023-04-01T15:44:59.417Z,38.02
2023-04-01T15:48:59.008Z,38.09
2023-04-01T15:52:58.974Z,38.32
2023-04-01T15:56:59.379Z,38.52
2023-04-01T16:00:58.961Z,38.14
2023-04-01T16:04:59.362Z,38.12
2023-04-01T16:08:58.921Z,38.05
2023-04-01T16:12:58.763Z,38.43
2023-04-01T16:16:58.904Z,38.00
2023-04-01T16:20:58.682Z,38.27
2023-04-01T16:24:59.462Z,37.39
2023-04-01T16:28:58.762Z,38.28
2023-04-01T16:32:58.625Z,39.06
2023-04-01T16:36:58.618Z,39.38
2023-04-01T16:40:58.856Z,39.00
2023-04-01T16:44:58.606Z,38.46
2023-04-01T16:48:58.837Z,38.70
2023-04-01T16:52:58.728Z,38.84
2023-04-01T16:56:58.825Z,38.89
2023-04-01T17:00:58.859Z,38.22
2023-04-01T17:04:58.901Z,38.01
2023-04-01T17:08:59.042Z,38.11
2023-04-01T17:12:59.380Z,38.26
2023-04-01T17:16:59.109Z,39.17
2023-04-01T17:20:59.365Z,40.24
2023-04-01T17:24:59.061Z,40.71
2023-04-01T17:28:58.987Z,40.63
2023-04-01T17:32:59.412Z,41.36
2023-04-01T17:36:59.354Z,41.91
2023-04-01T17:40:58.880Z,42.00
2023-04-01T17:44:58.891Z,42.32
2023-04-01T17:48:58.814Z,41.90
2023-04-01T17:52:58.885Z,42.19
2023-04-01T17:56:58.852Z,42.34
2023-04-01T18:00:59.711Z,42.90
2023-04-01T18:04:59.161Z,42.68
2023-04-01T18:08:59.156Z,42.62
2023-04-01T18:12:59.116Z,42.71
2023-04-01T18:16:59.401Z,42.77
2023-04-01T18:20:59.122Z,43.12
2023-04-01T18:24:59.377Z,42.86
2023-04-01T18:28:59.179Z,43.14
2023-04-01T18:32:59.377Z,42.40
2023-04-01T18:36:59.498Z,42.48
2023-04-01T18:40:59.485Z,42.54
2023-04-01T18:44:59.469Z,42.40
2023-04-01T18:48:59.546Z,42.44
2023-04-01T18:52:59.886Z,42.93
2023-04-01T18:56:59.722Z,42.81
2023-04-01T19:00:59.923Z,44.48
2023-04-01T19:04:59.808Z,45.04
2023-04-01T19:09:00.427Z,44.33
2023-04-01T19:13:00.218Z,44.37
2023-04-01T19:17:00.356Z,44.10
2023-04-01T19:21:00.901Z,43.71
2023-04-01T19:25:00.496Z,44.03
2023-04-01T19:29:00.915Z,44.27
2023-04-01T19:33:00.781Z,44.93
2023-04-01T19:37:01.444Z,44.54
2023-04-01T19:41:01.207Z,44.91
2023-04-01T19:45:01.167Z,44.98
2023-04-01T19:49:01.405Z,45.13
2023-04-01T19:53:01.427Z,45.12
2023-04-01T19:57:01.037Z,44.74
2023-04-01T20:01:01.493Z,45.37
2023-04-01T20:05:01.084Z,45.15
2023-04-01T20:09:01.444Z,44.69
2023-04-01T20:13:01.405Z,45.26
2023-04-01T20:17:01.032Z,45.07
2023-04-01T20:21:00.949Z,45.72
2023-04-01T20:25:00.806Z,45.87
2023-04-01T20:29:00.919Z,45.96
2023-04-01T20:33:00.778Z,45.97
2023-04-01T20:37:01.003Z,45.77
2023-04-01T20:41:00.695Z,45.86
2023-04-01T20:45:00.941Z,45.92
2023-04-01T20:49:00.643Z,45.75
2023-04-01T20:53:00.964Z,45.66
2023-04-01T20:57:00.954Z,45.73
2023-04-01T21:01:01.006Z,45.84
2023-04-01T21:05:00.960Z,46.02
2023-04-01T21:09:01.243Z,46.03
2023-04-01T21:13:01.646Z,46.37
2023-04-01T21:17:01.266Z,46.37
2023-04-01T21:21:01.501Z,46.40
2023-04-01T21:25:01.482Z,47.12
2023-04-01T21:29:01.560Z,47.58
2023-04-01T21:33:01.537Z,47.54
2023-04-01T21:37:01.518Z,47.07
2023-04-01T21:41:01.302Z,46.73
2023-04-01T21:45:01.554Z,46.53
2023-04-01T21:49:01.446Z,46.59
2023-04-01T21:53:01.175Z,46.73
2023-04-01T21:57:01.292Z,46.62
2023-04-01T22:01:01.559Z,46.33
2023-04-01T22:05:01.443Z,45.86
2023-04-01T22:09:01.093Z,45.91
2023-04-01T22:13:01.446Z,45.97
2023-04-01T22:17:01.009Z,46.16
2023-04-01T22:21:01.452Z,46.17
2023-04-01T22:25:00.933Z,46.42
2023-04-01T22:29:01.053Z,46.14
2023-04-01T22:33:00.901Z,46.44
2023-04-01T22:37:00.850Z,46.53
2023-04-01T22:41:01.131Z,46.41
2023-04-01T22:45:00.822Z,46.56
2023-04-01T22:49:01.105Z,46.59
2023-04-01T22:53:00.724Z,46.92
2023-04-01T22:57:00.859Z,46.88
2023-04-01T23:01:01.077Z,47.39
2023-04-01T23:05:00.800Z,47.37
2023-04-01T23:09:01.529Z,47.49
2023-04-01T23:13:00.861Z,47.77
2023-04-01T23:17:01.028Z,47.82
2023-04-01T23:21:02.002Z,48.20
2023-04-01T23:25:01.399Z,48.51
2023-04-01T23:29:01.970Z,48.75
2023-04-01T23:33:01.866Z,48.79
2023-04-01T23:37:02.004Z,49.05
2023-04-01T23:41:02.963Z,48.73
2023-04-01T23:45:02.336Z,49.34
2023-04-01T23:49:02.973Z,49.28
2023-04-01T23:53:02.828Z,49.08
2023-04-01T23:57:03.524Z,48.99
